Time,TemperatureF,DewpointF,PressureIn,WindDirection,WindDirectionDegrees,WindSpeedMPH,WindSpeedGustMPH,Humidity,HourlyPrecipIn,Conditions,Clouds,dailyrainin,SolarRadiationWatts/m^2,SoftwareType,DateUTC
2013-02-18 00:01:00,28.0,21.0,30.04,SSW,212,10.0,14.0,74,-99.99,,,-99.99,-0.100000,,2013-02-18 07:01:00,
2013-02-18 00:11:00,28.0,21.0,30.04,SW,215,9.0,15.0,74,-99.99,,,-99.99,-0.100000,,2013-02-18 07:11:00,
2013-02-18 00:21:00,28.0,21.0,30.04,SSW,212,10.0,15.0,74,-99.99,,,-99.99,0.000000,,2013-02-18 07:21:00,
2013-02-18 00:31:00,28.0,21.0,30.05,SSW,210,9.0,13.0,75,-99.99,,,-99.99,-0.100000,,2013-02-18 07:31:00,
2013-02-18 00:42:00,28.0,21.0,30.05,SSW,208,8.0,12.0,75,-99.99,,,-99.99,-0.100000,,2013-02-18 07:42:00,
2013-02-18 00:51:00,28.0,21.0,30.05,SSW,208,9.0,13.0,76,-99.99,,,-99.99,-0.100000,,2013-02-18 07:51:00,
2013-02-18 01:01:00,28.0,21.0,30.05,SW,219,9.0,13.0,75,-99.99,,,-99.99,0.000000,,2013-02-18 08:01:00,
2013-02-18 01:11:00,27.0,21.0,30.05,SW,216,10.0,13.0,76,-99.99,,,-99.99,0.000000,,2013-02-18 08:11:00,
2013-02-18 01:21:00,27.0,21.0,30.05,SW,215,10.0,13.0,76,-99.99,,,-99.99,0.000000,,2013-02-18 08:21:00,
2013-02-18 01:32:00,27.0,20.0,30.05,SW,219,8.0,11.0,76,-99.99,,,-99.99,-0.200000,,2013-02-18 08:32:00,
2013-02-18 01:41:00,27.0,20.0,30.06,SW,216,9.0,12.0,76,-99.99,,,-99.99,-0.100000,,2013-02-18 08:41:00,
2013-02-18 01:52:00,27.0,20.0,30.06,SW,215,9.0,13.0,76,-99.99,,,-99.99,-0.100000,,2013-02-18 08:52:00,
2013-02-18 02:02:00,27.0,20.0,30.06,SW,214,9.0,12.0,76,-99.99,,,-99.99,-0.100000,,2013-02-18 09:02:00,
2013-02-18 02:11:00,26.0,20.0,30.06,SW,214,8.0,12.0,76,-99.99,,,-99.99,-0.200000,,2013-02-18 09:11:00,
2013-02-18 02:22:00,26.0,20.0,30.06,SW,216,9.0,12.0,76,-99.99,,,-99.99,-0.100000,,2013-02-18 09:22:00,
2013-02-18 02:31:00,27.0,20.0,30.06,SW,219,10.0,14.0,77,-99.99,,,-99.99,-0.100000,,2013-02-18 09:31:00,
2013-02-18 02:41:00,27.0,20.0,30.07,SW,222,8.0,11.0,77,-99.99,,,-99.99,0.000000,,2013-02-18 09:41:00,
2013-02-18 02:51:00,27.0,21.0,30.07,SW,226,8.0,12.0,77,-99.99,,,-99.99,-0.100000,,2013-02-18 09:51:00,
2013-02-18 03:01:00,27.0,20.0,30.07,SW,232,9.0,14.0,76,-99.99,,,-99.99,-0.100000,,2013-02-18 10:01:00,
2013-02-18 03:11:00,27.0,20.0,30.07,SW,227,6.0,9.0,76,-99.99,,,-99.99,0.000000,,2013-02-18 10:11:00,
2013-02-18 03:21:00,26.0,21.0,30.07,SW,233,6.0,9.0,78,-99.99,,,-99.99,-0.100000,,2013-02-18 10:21:00,
2013-02-18 03:31:00,26.0,21.0,30.07,SW,230,5.0,7.0,79,-99.99,,,-99.99,0.000000,,2013-02-18 10:31:00,
2013-02-18 03:41:00,26.0,21.0,30.07,SW,233,5.0,7.0,79,-99.99,,,-99.99,0.000000,,2013-02-18 10:41:00,
2013-02-18 03:51:00,26.0,20.0,30.07,SW,224,6.0,8.0,79,-99.99,,,-99.99,-0.200000,,2013-02-18 10:51:00,
2013-02-18 04:01:00,26.0,20.0,30.06,SW,229,5.0,7.0,79,-99.99,,,-99.99,-0.200000,,2013-02-18 11:01:00,
2013-02-18 04:11:00,26.0,20.0,30.06,SW,218,3.0,4.0,79,-99.99,,,-99.99,-0.100000,,2013-02-18 11:11:00,
2013-02-18 04:21:00,25.0,20.0,30.06,SW,221,3.0,4.0,79,-99.99,,,-99.99,0.000000,,2013-02-18 11:21:00,
2013-02-18 04:31:00,25.0,20.0,30.06,SW,219,4.0,5.0,80,-99.99,,,-99.99,0.000000,,2013-02-18 11:31:00,
2013-02-18 04:41:00,25.0,19.0,30.07,South,187,3.0,4.0,80,-99.99,,,-99.99,-0.200000,,2013-02-18 11:41:00,
2013-02-18 04:52:00,24.0,19.0,30.07,SSE,159,3.0,4.0,81,-99.99,,,-99.99,-0.100000,,2013-02-18 11:52:00,
2013-02-18 05:01:00,23.0,19.0,30.07,SSE,162,3.0,4.0,84,-99.99,,,-99.99,0.000000,,2013-02-18 12:01:00,
2013-02-18 05:11:00,22.0,18.0,30.07,South,178,2.0,2.0,84,-99.99,,,-99.99,0.000000,,2013-02-18 12:11:00,
2013-02-18 05:21:00,22.0,19.0,30.07,South,177,3.0,3.0,86,-99.99,,,-99.99,0.000000,,2013-02-18 12:21:00,
2013-02-18 05:31:00,22.0,19.0,30.08,SSE,154,4.0,4.0,87,-99.99,,,-99.99,-0.100000,,2013-02-18 12:31:00,
2013-02-18 05:41:00,22.0,19.0,30.08,SSE,154,4.0,5.0,87,-99.99,,,-99.99,-0.100000,,2013-02-18 12:41:00,
2013-02-18 05:52:00,22.0,18.0,30.08,South,173,4.0,5.0,86,-99.99,,,-99.99,-0.100000,,2013-02-18 12:52:00,
2013-02-18 06:02:00,21.0,18.0,30.08,SSE,165,4.0,5.0,85,-99.99,,,-99.99,-0.100000,,2013-02-18 13:02:00,
2013-02-18 06:11:00,21.0,18.0,30.08,South,169,4.0,5.0,85,-99.99,,,-99.99,0.000000,,2013-02-18 13:11:00,
2013-02-18 06:21:00,21.0,17.0,30.08,South,175,4.0,4.0,83,-99.99,,,-99.99,-0.100000,,2013-02-18 13:21:00,
2013-02-18 06:31:00,21.0,17.0,30.08,South,169,4.0,5.0,83,-99.99,,,-99.99,-0.100000,,2013-02-18 13:31:00,
2013-02-18 06:41:00,21.0,17.0,30.08,SSE,159,5.0,6.0,83,-99.99,,,-99.99,0.000000,,2013-02-18 13:41:00,
2013-02-18 06:52:00,21.0,17.0,30.08,South,171,4.0,6.0,83,-99.99,,,-99.99,-0.100000,,2013-02-18 13:52:00,
2013-02-18 07:02:00,21.0,17.0,30.08,South,173,4.0,5.0,82,-99.99,,,-99.99,-0.100000,,2013-02-18 14:02:00,
2013-02-18 07:11:00,21.0,16.0,30.08,South,178,4.0,5.0,82,-99.99,,,-99.99,0.000000,,2013-02-18 14:11:00,
2013-02-18 07:21:00,21.0,17.0,30.08,South,173,4.0,5.0,82,-99.99,,,-99.99,0.300000,,2013-02-18 14:21:00,
2013-02-18 07:31:00,20.0,16.0,30.09,SSE,166,3.0,5.0,82,-99.99,,,-99.99,1.700000,,2013-02-18 14:31:00,
2013-02-18 07:41:00,20.0,16.0,30.09,ESE,121,2.0,3.0,83,-99.99,,,-99.99,5.500000,,2013-02-18 14:41:00,
2013-02-18 07:52:00,19.0,15.0,30.09,SSE,165,4.0,5.0,84,-99.99,,,-99.99,10.000000,,2013-02-18 14:52:00,
2013-02-18 08:01:00,21.0,17.0,30.08,South,171,4.0,5.0,84,-99.99,,,-99.99,14.400000,,2013-02-18 15:01:00,
2013-02-18 08:11:00,21.0,16.0,30.09,SSE,165,4.0,6.0,81,-99.99,,,-99.99,19.400000,,2013-02-18 15:11:00,
2013-02-18 08:21:00,22.0,17.0,30.09,South,177,4.0,7.0,80,-99.99,,,-99.99,120.900002,,2013-02-18 15:21:00,
2013-02-18 08:31:00,23.0,17.0,30.09,South,181,4.0,6.0,77,-99.99,,,-99.99,59.000000,,2013-02-18 15:31:00,
2013-02-18 08:41:00,23.0,17.0,30.09,South,177,4.0,6.0,76,-99.99,,,-99.99,184.399994,,2013-02-18 15:41:00,
2013-02-18 08:51:00,24.0,18.0,30.09,SSE,168,3.0,3.0,76,-99.99,,,-99.99,220.100006,,2013-02-18 15:51:00,
2013-02-18 09:01:00,26.0,19.0,30.09,South,175,4.0,6.0,74,-99.99,,,-99.99,247.300003,,2013-02-18 16:01:00,
2013-02-18 09:11:00,26.0,19.0,30.09,South,185,5.0,7.0,72,-99.99,,,-99.99,214.399994,,2013-02-18 16:11:00,
2013-02-18 09:21:00,27.0,19.0,30.09,SSW,195,5.0,7.0,71,-99.99,,,-99.99,279.000000,,2013-02-18 16:21:00,
2013-02-18 09:31:00,27.0,18.0,30.10,South,190,6.0,9.0,68,-99.99,,,-99.99,308.600006,,2013-02-18 16:31:00,
2013-02-18 09:41:00,28.0,19.0,30.10,SW,218,6.0,9.0,67,-99.99,,,-99.99,358.899994,,2013-02-18 16:41:00,
2013-02-18 09:51:00,28.0,18.0,30.10,SSW,204,5.0,8.0,65,-99.99,,,-99.99,394.299988,,2013-02-18 16:51:00,
2013-02-18 10:02:00,29.0,19.0,30.10,SW,216,4.0,8.0,64,-99.99,,,-99.99,355.399994,,2013-02-18 17:02:00,
2013-02-18 10:11:00,29.0,18.0,30.10,South,187,5.0,7.0,64,-99.99,,,-99.99,403.600006,,2013-02-18 17:11:00,
2013-02-18 10:21:00,29.0,19.0,30.10,SW,215,5.0,7.0,63,-99.99,,,-99.99,429.600006,,2013-02-18 17:21:00,
2013-02-18 10:31:00,30.0,19.0,30.10,SW,228,3.0,5.0,64,-99.99,,,-99.99,509.799988,,2013-02-18 17:31:00,
2013-02-18 10:41:00,30.0,19.0,30.10,SW,223,4.0,6.0,63,-99.99,,,-99.99,502.299988,,2013-02-18 17:41:00,
2013-02-18 10:52:00,30.0,19.0,30.10,SSW,204,4.0,7.0,62,-99.99,,,-99.99,545.200012,,2013-02-18 17:52:00,
2013-02-18 11:01:00,31.0,19.0,30.10,South,191,4.0,7.0,61,-99.99,,,-99.99,534.500000,,2013-02-18 18:01:00,
2013-02-18 11:11:00,31.0,19.0,30.10,South,189,4.0,6.0,60,-99.99,,,-99.99,569.700012,,2013-02-18 18:11:00,
2013-02-18 11:21:00,31.0,18.0,30.10,SW,221,4.0,7.0,59,-99.99,,,-99.99,179.399994,,2013-02-18 18:21:00,
2013-02-18 11:31:00,32.0,19.0,30.10,WSW,238,5.0,8.0,59,-99.99,,,-99.99,625.900024,,2013-02-18 18:31:00,
2013-02-18 11:41:00,32.0,18.0,30.10,SW,219,8.0,10.0,56,-99.99,,,-99.99,483.399994,,2013-02-18 18:41:00,
2013-02-18 11:51:00,32.0,18.0,30.10,SW,235,6.0,9.0,56,-99.99,,,-99.99,528.500000,,2013-02-18 18:51:00,
2013-02-18 12:01:00,33.0,19.0,30.10,WSW,242,7.0,11.0,56,-99.99,,,-99.99,726.400024,,2013-02-18 19:01:00,
2013-02-18 12:21:00,34.0,19.0,30.10,SW,217,8.0,11.0,54,-99.99,,,-99.99,681.799988,,2013-02-18 19:21:00,
2013-02-18 12:32:00,33.0,18.0,30.10,SW,231,7.0,10.0,53,-99.99,,,-99.99,699.400024,,2013-02-18 19:32:00,
2013-02-18 12:41:00,34.0,18.0,30.09,WSW,241,6.0,9.0,50,-99.99,,,-99.99,681.799988,,2013-02-18 19:41:00,
2013-02-18 12:51:00,34.0,18.0,30.09,SW,221,6.0,9.0,51,-99.99,,,-99.99,652.700012,,2013-02-18 19:51:00,
2013-02-18 13:01:00,35.0,18.0,30.08,SW,222,7.0,10.0,50,-99.99,,,-99.99,583.000000,,2013-02-18 20:01:00,
2013-02-18 13:11:00,34.0,17.0,30.08,South,185,6.0,12.0,49,-99.99,,,-99.99,486.500000,,2013-02-18 20:11:00,
2013-02-18 13:21:00,34.0,16.0,30.08,SSW,207,7.0,10.0,48,-99.99,,,-99.99,622.299988,,2013-02-18 20:21:00,
2013-02-18 13:32:00,33.0,16.0,30.07,SW,224,7.0,10.0,48,-99.99,,,-99.99,304.299988,,2013-02-18 20:32:00,
2013-02-18 13:41:00,34.0,16.0,30.07,South,184,6.0,9.0,47,-99.99,,,-99.99,478.899994,,2013-02-18 20:41:00,
2013-02-18 13:52:00,35.0,17.0,30.06,SSE,166,12.0,17.0,48,-99.99,,,-99.99,443.299988,,2013-02-18 20:52:00,
2013-02-18 14:02:00,35.0,17.0,30.06,SSE,154,10.0,14.0,48,-99.99,,,-99.99,380.700012,,2013-02-18 21:02:00,
2013-02-18 14:11:00,35.0,17.0,30.06,SSE,160,12.0,17.0,48,-99.99,,,-99.99,308.000000,,2013-02-18 21:11:00,
2013-02-18 14:21:00,35.0,17.0,30.06,SSE,159,10.0,17.0,47,-99.99,,,-99.99,371.799988,,2013-02-18 21:21:00,
2013-02-18 14:31:00,35.0,17.0,30.06,SSE,160,12.0,19.0,46,-99.99,,,-99.99,408.399994,,2013-02-18 21:31:00,
2013-02-18 14:41:00,35.0,16.0,30.05,SSE,155,12.0,16.0,46,-99.99,,,-99.99,405.600006,,2013-02-18 21:41:00,
2013-02-18 14:51:00,35.0,17.0,30.05,SSE,154,10.0,13.0,47,-99.99,,,-99.99,420.100006,,2013-02-18 21:51:00,
2013-02-18 15:01:00,35.0,16.0,30.05,SSE,161,12.0,16.0,45,-99.99,,,-99.99,395.399994,,2013-02-18 22:01:00,
2013-02-18 15:11:00,35.0,17.0,30.05,SSE,158,12.0,17.0,46,-99.99,,,-99.99,359.000000,,2013-02-18 22:11:00,
2013-02-18 15:21:00,35.0,16.0,30.05,South,169,12.0,17.0,45,-99.99,,,-99.99,355.100006,,2013-02-18 22:21:00,
2013-02-18 15:32:00,35.0,15.0,30.05,SSE,162,12.0,16.0,44,-99.99,,,-99.99,467.299988,,2013-02-18 22:32:00,
2013-02-18 15:41:00,36.0,16.0,30.04,SSE,163,12.0,15.0,45,-99.99,,,-99.99,396.100006,,2013-02-18 22:41:00,
2013-02-18 16:01:00,34.0,17.0,30.04,SSE,155,18.0,23.0,50,-99.99,,,-99.99,302.399994,,2013-02-18 23:01:00,
2013-02-18 16:11:00,34.0,18.0,30.04,SSE,158,17.0,23.0,50,-99.99,,,-99.99,346.600006,,2013-02-18 23:11:00,
2013-02-18 16:21:00,35.0,18.0,30.03,SSE,160,15.0,22.0,50,-99.99,,,-99.99,408.000000,,2013-02-18 23:21:00,
2013-02-18 16:31:00,34.0,17.0,30.03,SSE,161,16.0,24.0,49,-99.99,,,-99.99,294.100006,,2013-02-18 23:31:00,
2013-02-18 16:41:00,33.0,17.0,30.03,SSE,159,16.0,22.0,51,-99.99,,,-99.99,157.300003,,2013-02-18 23:41:00,
2013-02-18 16:52:00,32.0,17.0,30.03,SSE,159,14.0,21.0,53,-99.99,,,-99.99,135.399994,,2013-02-18 23:52:00,
2013-02-18 17:11:00,32.0,18.0,30.02,SSE,158,13.0,19.0,56,-99.99,,,-99.99,118.800003,,2013-02-19 00:11:00,
2013-02-18 17:21:00,32.0,18.0,30.02,SSE,155,15.0,21.0,55,-99.99,,,-99.99,140.899994,,2013-02-19 00:21:00,
2013-02-18 17:32:00,32.0,18.0,30.01,SSE,154,15.0,21.0,54,-99.99,,,-99.99,175.600006,,2013-02-19 00:32:00,
2013-02-18 17:41:00,32.0,18.0,30.01,SSE,154,14.0,19.0,55,-99.99,,,-99.99,127.199997,,2013-02-19 00:41:00,
2013-02-18 17:52:00,32.0,18.0,30.01,SSE,154,15.0,20.0,55,-99.99,,,-99.99,51.700001,,2013-02-19 00:52:00,
2013-02-18 18:02:00,31.0,18.0,30.00,SSE,155,13.0,18.0,57,-99.99,,,-99.99,44.400002,,2013-02-19 01:02:00,
2013-02-18 18:11:00,31.0,17.0,30.00,SSE,157,13.0,18.0,57,-99.99,,,-99.99,32.000000,,2013-02-19 01:11:00,
2013-02-18 18:21:00,30.0,18.0,30.00,SSE,153,12.0,16.0,58,-99.99,,,-99.99,14.900000,,2013-02-19 01:21:00,
2013-02-18 18:32:00,30.0,17.0,30.00,SSE,147,14.0,20.0,59,-99.99,,,-99.99,1.600000,,2013-02-19 01:32:00,
2013-02-18 18:41:00,30.0,18.0,30.00,SE,145,11.0,14.0,60,-99.99,,,-99.99,0.200000,,2013-02-19 01:41:00,
2013-02-18 18:52:00,29.0,17.0,30.00,SSE,151,12.0,16.0,60,-99.99,,,-99.99,0.000000,,2013-02-19 01:52:00,
2013-02-18 19:01:00,29.0,17.0,30.00,SSE,149,11.0,14.0,62,-99.99,,,-99.99,-0.100000,,2013-02-19 02:01:00,
2013-02-18 19:11:00,28.0,17.0,30.00,SSE,147,9.0,14.0,62,-99.99,,,-99.99,0.000000,,2013-02-19 02:11:00,
2013-02-18 19:21:00,28.0,17.0,29.99,SSE,148,11.0,16.0,64,-99.99,,,-99.99,-0.100000,,2013-02-19 02:21:00,
2013-02-18 19:32:00,27.0,17.0,29.99,SSE,148,12.0,16.0,65,-99.99,,,-99.99,-0.100000,,2013-02-19 02:32:00,
2013-02-18 19:41:00,27.0,18.0,29.99,SE,131,10.0,13.0,67,-99.99,,,-99.99,-0.100000,,2013-02-19 02:41:00,
2013-02-18 19:52:00,27.0,18.0,29.99,ESE,109,7.0,10.0,66,-99.99,,,-99.99,-0.100000,,2013-02-19 02:52:00,
2013-02-18 20:03:00,27.0,18.0,29.99,ESE,121,6.0,8.0,68,-99.99,,,-99.99,-0.100000,,2013-02-19 03:03:00,
2013-02-18 20:11:00,27.0,17.0,29.98,ESE,112,6.0,8.0,66,-99.99,,,-99.99,-0.100000,,2013-02-19 03:11:00,
2013-02-18 20:21:00,26.0,16.0,29.98,SE,138,3.0,5.0,67,-99.99,,,-99.99,-0.100000,,2013-02-19 03:21:00,
2013-02-18 20:32:00,26.0,17.0,29.98,SE,133,4.0,5.0,68,-99.99,,,-99.99,0.000000,,2013-02-19 03:32:00,
2013-02-18 20:42:00,25.0,17.0,29.97,East,90,3.0,4.0,69,-99.99,,,-99.99,0.100000,,2013-02-19 03:42:00,
2013-02-18 20:51:00,24.0,17.0,29.97,ESE,109,2.0,3.0,73,-99.99,,,-99.99,0.000000,,2013-02-19 03:51:00,
2013-02-18 21:01:00,25.0,16.0,29.96,East,100,4.0,5.0,69,-99.99,,,-99.99,-0.100000,,2013-02-19 04:01:00,
2013-02-18 21:11:00,25.0,16.0,29.96,East,81,5.0,7.0,69,-99.99,,,-99.99,-0.100000,,2013-02-19 04:11:00,
2013-02-18 21:21:00,25.0,16.0,29.96,East,86,5.0,7.0,67,-99.99,,,-99.99,0.000000,,2013-02-19 04:21:00,
2013-02-18 21:32:00,25.0,16.0,29.96,ESE,119,3.0,4.0,68,-99.99,,,-99.99,0.000000,,2013-02-19 04:32:00,
2013-02-18 21:41:00,25.0,16.0,29.95,ESE,107,2.0,4.0,69,-99.99,,,-99.99,-0.100000,,2013-02-19 04:41:00,
2013-02-18 21:51:00,25.0,15.0,29.95,ESE,106,4.0,6.0,64,-99.99,,,-99.99,-0.100000,,2013-02-19 04:51:00,
2013-02-18 22:01:00,25.0,15.0,29.95,ESE,120,5.0,7.0,64,-99.99,,,-99.99,-0.100000,,2013-02-19 05:01:00,
2013-02-18 22:12:00,26.0,15.0,29.94,ESE,106,5.0,9.0,63,-99.99,,,-99.99,-0.100000,,2013-02-19 05:12:00,
2013-02-18 22:22:00,26.0,15.0,29.94,East,101,6.0,8.0,61,-99.99,,,-99.99,0.000000,,2013-02-19 05:22:00,
2013-02-18 22:32:00,26.0,15.0,29.94,ENE,75,4.0,5.0,62,-99.99,,,-99.99,-0.100000,,2013-02-19 05:32:00,
2013-02-18 22:42:00,25.0,14.0,29.94,NNE,30,4.0,6.0,61,-99.99,,,-99.99,-0.100000,,2013-02-19 05:42:00,
2013-02-18 22:52:00,26.0,14.0,29.93,East,94,5.0,6.0,61,-99.99,,,-99.99,-0.100000,,2013-02-19 05:52:00,
2013-02-18 23:02:00,25.0,14.0,29.93,ENE,68,5.0,7.0,61,-99.99,,,-99.99,-0.100000,,2013-02-19 06:02:00,
2013-02-18 23:11:00,25.0,14.0,29.93,ENE,72,6.0,7.0,61,-99.99,,,-99.99,-0.100000,,2013-02-19 06:11:00,
2013-02-18 23:21:00,25.0,13.0,29.92,East,86,6.0,7.0,59,-99.99,,,-99.99,-0.100000,,2013-02-19 06:21:00,
2013-02-18 23:32:00,25.0,13.0,29.92,East,85,6.0,7.0,59,-99.99,,,-99.99,-0.100000,,2013-02-19 06:32:00,
2013-02-18 23:41:00,25.0,12.0,29.91,East,97,7.0,9.0,57,-99.99,,,-99.99,-0.200000,,2013-02-19 06:41:00,
2013-02-18 23:52:00,25.0,12.0,29.91,East,95,6.0,7.0,56,-99.99,,,-99.99,0.000000,,2013-02-19 06:52:00,